Terminal Aerodrome Forecast
Issued by NWS

Home | Current Version | Previous Version | Text Only | Print | Product List | Glossary On
Versions: 1 2 3 4 5 6 7 8 9 10 11 12 13 14 15
687
FTUS46 KLOX 192333
TAFPRB
TAF
KPRB 192333Z 2000/2024 20014G23KT P6SM SKC
     FM200300 20008KT P6SM SKC
     FM200600 VRB03KT P6SM SKC
     FM201000 VRB03KT P6SM OVC007
     FM201400 VRB03KT P6SM BKN010
     FM201700 21007KT P6SM FEW012
     FM202000 21015G25KT P6SM SKC=

USA.gov is the U.S. government's official web portal to all federal, state and local government web resources and services.